sensor_id;sensor_type;location;lat;lon;timestamp;pressure;altitude;pressure_sealevel;temperature;humidity
50057;BME280;36875;49.468;11.200;2023-02-16T00:00:42;99008.22;;;22.31;35.46
50057;BME280;36875;49.468;11.200;2023-02-16T00:03:10;99007.03;;;22.37;35.30
50057;BME280;36875;49.468;11.200;2023-02-16T00:05:36;99009.06;;;22.31;35.47
50057;BME280;36875;49.468;11.200;2023-02-16T00:08:01;99005.84;;;22.24;35.15
50057;BME280;36875;49.468;11.200;2023-02-16T00:10:31;98989.78;;;22.18;35.54
50057;BME280;36875;49.468;11.200;2023-02-16T00:12:57;99004.00;;;22.20;35.52
50057;BME280;36875;49.468;11.200;2023-02-16T00:15:41;99002.16;;;22.15;35.59
50057;BME280;36875;49.468;11.200;2023-02-16T00:18:14;98998.69;;;22.09;35.64
50057;BME280;36875;49.468;11.200;2023-02-16T00:20:40;98991.34;;;22.05;35.40
50057;BME280;36875;49.468;11.200;2023-02-16T00:23:06;98991.13;;;22.01;35.60
50057;BME280;36875;49.468;11.200;2023-02-16T00:25:33;98981.38;;;21.95;35.56
50057;BME280;36875;49.468;11.200;2023-02-16T00:28:08;98989.31;;;21.97;35.73
50057;BME280;36875;49.468;11.200;2023-02-16T00:30:37;98991.81;;;21.93;35.45
50057;BME280;36875;49.468;11.200;2023-02-16T00:33:07;98982.03;;;21.87;35.65
50057;BME280;36875;49.468;11.200;2023-02-16T00:35:33;98981.00;;;21.83;35.63
50057;BME280;36875;49.468;11.200;2023-02-16T00:37:58;98984.03;;;21.81;35.55
50057;BME280;36875;49.468;11.200;2023-02-16T00:40:24;98971.53;;;21.75;35.81
50057;BME280;36875;49.468;11.200;2023-02-16T00:42:51;98984.94;;;21.77;35.60
50057;BME280;36875;49.468;11.200;2023-02-16T00:45:18;98972.13;;;21.72;35.60
50057;BME280;36875;49.468;11.200;2023-02-16T00:47:46;98980.13;;;21.68;35.54
50057;BME280;36875;49.468;11.200;2023-02-16T00:50:18;98980.19;;;21.63;35.30
50057;BME280;36875;49.468;11.200;2023-02-16T00:52:44;98978.34;;;21.59;35.59
50057;BME280;36875;49.468;11.200;2023-02-16T00:55:14;98980.06;;;21.54;35.45
50057;BME280;36875;49.468;11.200;2023-02-16T00:57:42;98976.56;;;21.49;35.67
50057;BME280;36875;49.468;11.200;2023-02-16T01:02:42;98978.84;;;21.42;35.63
50057;BME280;36875;49.468;11.200;2023-02-16T01:05:08;98975.56;;;21.40;35.49
50057;BME280;36875;49.468;11.200;2023-02-16T01:07:34;98970.16;;;21.34;35.91
50057;BME280;36875;49.468;11.200;2023-02-16T01:10:18;98975.69;;;21.29;35.79
50057;BME280;36875;49.468;11.200;2023-02-16T01:13:02;98970.50;;;21.28;35.47
50057;BME280;36875;49.468;11.200;2023-02-16T01:15:29;98975.31;;;21.17;35.68
50057;BME280;36875;49.468;11.200;2023-02-16T01:17:55;98979.41;;;21.20;35.90
50057;BME280;36875;49.468;11.200;2023-02-16T01:20:23;98969.31;;;21.15;35.54
50057;BME280;36875;49.468;11.200;2023-02-16T01:22:49;98967.75;;;21.09;35.95
50057;BME280;36875;49.468;11.200;2023-02-16T01:25:15;98967.19;;;21.12;36.01
50057;BME280;36875;49.468;11.200;2023-02-16T01:27:41;98955.03;;;20.99;35.85
50057;BME280;36875;49.468;11.200;2023-02-16T01:30:12;98961.28;;;20.99;35.99
50057;BME280;36875;49.468;11.200;2023-02-16T01:32:39;98959.66;;;20.98;35.82
50057;BME280;36875;49.468;11.200;2023-02-16T01:35:05;98965.72;;;20.95;35.52
50057;BME280;36875;49.468;11.200;2023-02-16T01:37:30;98952.69;;;20.87;35.74
50057;BME280;36875;49.468;11.200;2023-02-16T01:39:56;98958.66;;;20.89;35.81
50057;BME280;36875;49.468;11.200;2023-02-16T01:42:32;98963.38;;;20.84;36.03
50057;BME280;36875;49.468;11.200;2023-02-16T01:45:00;98940.00;;;20.72;35.91
50057;BME280;36875;49.468;11.200;2023-02-16T01:47:36;98950.66;;;20.74;35.76
50057;BME280;36875;49.468;11.200;2023-02-16T01:50:15;98945.97;;;20.74;36.01
50057;BME280;36875;49.468;11.200;2023-02-16T01:52:44;98955.66;;;20.67;35.95
50057;BME280;36875;49.468;11.200;2023-02-16T01:55:16;98948.25;;;20.67;36.04
50057;BME280;36875;49.468;11.200;2023-02-16T01:57:46;98944.47;;;20.63;36.04
50057;BME280;36875;49.468;11.200;2023-02-16T02:00:19;98945.88;;;20.60;35.81
50057;BME280;36875;49.468;11.200;2023-02-16T02:02:48;98942.88;;;20.57;35.95
50057;BME280;36875;49.468;11.200;2023-02-16T02:05:23;98942.66;;;20.53;35.79
50057;BME280;36875;49.468;11.200;2023-02-16T02:08:08;98942.13;;;20.51;35.59
50057;BME280;36875;49.468;11.200;2023-02-16T02:10:40;98942.69;;;20.48;35.99
50057;BME280;36875;49.468;11.200;2023-02-16T02:13:14;98930.75;;;20.39;35.81
50057;BME280;36875;49.468;11.200;2023-02-16T02:15:43;98943.31;;;20.40;35.94
50057;BME280;36875;49.468;11.200;2023-02-16T02:18:09;98938.16;;;20.38;36.05
50057;BME280;36875;49.468;11.200;2023-02-16T02:20:46;98936.78;;;20.36;35.79
50057;BME280;36875;49.468;11.200;2023-02-16T02:23:42;98936.84;;;20.31;35.97
50057;BME280;36875;49.468;11.200;2023-02-16T02:26:37;98931.38;;;20.31;36.00
50057;BME280;36875;49.468;11.200;2023-02-16T02:29:15;98929.78;;;20.25;35.94
50057;BME280;36875;49.468;11.200;2023-02-16T02:31:50;98919.44;;;20.21;35.80
50057;BME280;36875;49.468;11.200;2023-02-16T02:34:27;98920.56;;;20.20;35.95
50057;BME280;36875;49.468;11.200;2023-02-16T02:37:04;98914.84;;;20.17;35.97
50057;BME280;36875;49.468;11.200;2023-02-16T02:39:40;98918.41;;;20.12;35.64
50057;BME280;36875;49.468;11.200;2023-02-16T02:42:13;98916.00;;;20.11;35.97
50057;BME280;36875;49.468;11.200;2023-02-16T02:44:46;98920.09;;;20.08;36.02
50057;BME280;36875;49.468;11.200;2023-02-16T02:47:13;98913.84;;;20.08;35.75
50057;BME280;36875;49.468;11.200;2023-02-16T02:49:38;98913.59;;;20.04;35.78
50057;BME280;36875;49.468;11.200;2023-02-16T02:52:04;98914.16;;;20.01;35.86
50057;BME280;36875;49.468;11.200;2023-02-16T02:54:31;98921.53;;;20.00;35.68
50057;BME280;36875;49.468;11.200;2023-02-16T02:57:20;98922.38;;;19.96;35.94
50057;BME280;36875;49.468;11.200;2023-02-16T03:00:08;98924.06;;;19.92;35.76
50057;BME280;36875;49.468;11.200;2023-02-16T03:02:56;98918.09;;;19.90;35.97
50057;BME280;36875;49.468;11.200;2023-02-16T03:05:24;98920.03;;;19.84;36.12
50057;BME280;36875;49.468;11.200;2023-02-16T03:07:53;98919.78;;;19.80;36.14
50057;BME280;36875;49.468;11.200;2023-02-16T03:10:24;98911.59;;;19.80;35.62
50057;BME280;36875;49.468;11.200;2023-02-16T03:13:14;98910.81;;;19.75;36.07
50057;BME280;36875;49.468;11.200;2023-02-16T03:15:42;98915.19;;;19.71;35.61
50057;BME280;36875;49.468;11.200;2023-02-16T03:18:10;98914.38;;;19.70;35.64
50057;BME280;36875;49.468;11.200;2023-02-16T03:20:55;98909.22;;;19.69;35.83
50057;BME280;36875;49.468;11.200;2023-02-16T03:23:41;98904.03;;;19.67;35.75
50057;BME280;36875;49.468;11.200;2023-02-16T03:26:27;98899.13;;;19.64;35.58
50057;BME280;36875;49.468;11.200;2023-02-16T03:29:14;98903.25;;;19.61;35.53
50057;BME280;36875;49.468;11.200;2023-02-16T03:31:41;98895.63;;;19.58;35.73
50057;BME280;36875;49.468;11.200;2023-02-16T03:34:08;98887.72;;;19.57;35.92
50057;BME280;36875;49.468;11.200;2023-02-16T03:36:36;98891.56;;;19.56;35.82
50057;BME280;36875;49.468;11.200;2023-02-16T03:39:03;98884.22;;;19.51;35.60
50057;BME280;36875;49.468;11.200;2023-02-16T03:41:32;98886.41;;;19.49;35.60
50057;BME280;36875;49.468;11.200;2023-02-16T03:43:58;98878.78;;;19.46;35.61
50057;BME280;36875;49.468;11.200;2023-02-16T03:46:25;98876.88;;;19.47;35.89
50057;BME280;36875;49.468;11.200;2023-02-16T03:48:50;98876.63;;;19.43;35.79
50057;BME280;36875;49.468;11.200;2023-02-16T03:51:16;98886.47;;;19.39;35.94
50057;BME280;36875;49.468;11.200;2023-02-16T03:53:43;98871.47;;;19.36;35.94
50057;BME280;36875;49.468;11.200;2023-02-16T03:56:09;98877.50;;;19.33;35.86
50057;BME280;36875;49.468;11.200;2023-02-16T03:58:34;98869.59;;;19.32;35.55
50057;BME280;36875;49.468;11.200;2023-02-16T04:01:00;98869.59;;;19.32;35.79
50057;BME280;36875;49.468;11.200;2023-02-16T04:03:27;98875.63;;;19.29;35.80
50057;BME280;36875;49.468;11.200;2023-02-16T04:05:52;98853.59;;;19.20;35.97
50057;BME280;36875;49.468;11.200;2023-02-16T04:08:18;98867.72;;;19.27;35.58
50057;BME280;36875;49.468;11.200;2023-02-16T04:10:44;98864.75;;;19.23;35.73
50057;BME280;36875;49.468;11.200;2023-02-16T04:13:09;98874.03;;;19.22;35.49
50057;BME280;36875;49.468;11.200;2023-02-16T04:15:35;98888.78;;;19.21;35.42
50057;BME280;36875;49.468;11.200;2023-02-16T04:18:01;98898.63;;;19.17;35.45
50057;BME280;36875;49.468;11.200;2023-02-16T04:20:30;98900.00;;;19.10;35.68
50057;BME280;36875;49.468;11.200;2023-02-16T04:22:56;98918.84;;;19.11;35.54
50057;BME280;36875;49.468;11.200;2023-02-16T04:25:22;98918.84;;;19.11;35.81
50057;BME280;36875;49.468;11.200;2023-02-16T04:27:48;98927.28;;;19.10;35.55
50057;BME280;36875;49.468;11.200;2023-02-16T04:30:16;98927.06;;;19.06;35.46
50057;BME280;36875;49.468;11.200;2023-02-16T04:32:42;98918.88;;;19.06;35.48
50057;BME280;36875;49.468;11.200;2023-02-16T04:35:07;98930.63;;;19.01;35.47
50057;BME280;36875;49.468;11.200;2023-02-16T04:37:34;98935.28;;;19.01;35.54
50057;BME280;36875;49.468;11.200;2023-02-16T04:40:00;98931.16;;;18.98;35.42
50057;BME280;36875;49.468;11.200;2023-02-16T04:42:25;98928.75;;;18.97;35.74
50057;BME280;36875;49.468;11.200;2023-02-16T04:44:51;98936.66;;;18.93;35.34
50057;BME280;36875;49.468;11.200;2023-02-16T04:47:17;98935.84;;;18.93;35.63
50057;BME280;36875;49.468;11.200;2023-02-16T04:49:43;98927.66;;;18.93;35.86
50057;BME280;36875;49.468;11.200;2023-02-16T04:52:10;98915.13;;;18.92;35.35
50057;BME280;36875;49.468;11.200;2023-02-16T04:54:36;98914.34;;;18.86;35.87
50057;BME280;36875;49.468;11.200;2023-02-16T04:57:02;98914.34;;;18.86;35.66
50057;BME280;36875;49.468;11.200;2023-02-16T04:59:28;98921.69;;;18.85;35.61
50057;BME280;36875;49.468;11.200;2023-02-16T05:01:53;98908.63;;;18.82;35.87
50057;BME280;36875;49.468;11.200;2023-02-16T05:04:19;98912.66;;;18.80;35.71
50057;BME280;36875;49.468;11.200;2023-02-16T05:06:44;98916.78;;;18.77;35.44
50057;BME280;36875;49.468;11.200;2023-02-16T05:09:10;98913.25;;;18.77;35.94
50057;BME280;36875;49.468;11.200;2023-02-16T05:11:37;98913.00;;;18.73;35.76
50057;BME280;36875;49.468;11.200;2023-02-16T05:14:23;98920.63;;;18.71;35.95
50057;BME280;36875;49.468;11.200;2023-02-16T05:17:07;98913.00;;;18.68;35.92
50057;BME280;36875;49.468;11.200;2023-02-16T05:19:32;98921.44;;;18.66;35.87
50057;BME280;36875;49.468;11.200;2023-02-16T05:21:58;98919.81;;;18.65;35.57
50057;BME280;36875;49.468;11.200;2023-02-16T05:24:23;98926.38;;;18.64;35.70
50057;BME280;36875;49.468;11.200;2023-02-16T05:26:50;98928.56;;;18.62;35.74
50057;BME280;36875;49.468;11.200;2023-02-16T05:29:16;98924.47;;;18.60;35.39
50057;BME280;36875;49.468;11.200;2023-02-16T05:31:41;98929.09;;;18.59;35.95
50057;BME280;36875;49.468;11.200;2023-02-16T05:34:07;98931.56;;;18.56;35.56
50057;BME280;36875;49.468;11.200;2023-02-16T05:36:32;98923.13;;;18.52;35.73
50057;BME280;36875;49.468;11.200;2023-02-16T05:38:58;98935.69;;;18.53;35.43
50057;BME280;36875;49.468;11.200;2023-02-16T05:41:23;98937.03;;;18.50;35.44
50057;BME280;36875;49.468;11.200;2023-02-16T05:43:51;98936.75;;;18.47;35.74
50057;BME280;36875;49.468;11.200;2023-02-16T05:46:17;98933.22;;;18.46;35.97
50057;BME280;36875;49.468;11.200;2023-02-16T05:48:43;98925.91;;;18.37;35.63
50057;BME280;36875;49.468;11.200;2023-02-16T05:51:08;98946.59;;;18.43;35.59
50057;BME280;36875;49.468;11.200;2023-02-16T05:53:34;98948.78;;;18.41;35.96
50057;BME280;36875;49.468;11.200;2023-02-16T05:55:59;98950.16;;;18.38;35.81
50057;BME280;36875;49.468;11.200;2023-02-16T05:58:25;98952.03;;;18.38;36.04
50057;BME280;36875;49.468;11.200;2023-02-16T06:00:52;98948.78;;;18.36;35.89
50057;BME280;36875;49.468;11.200;2023-02-16T06:03:17;98941.72;;;18.35;35.59
50057;BME280;36875;49.468;11.200;2023-02-16T06:05:43;98946.63;;;18.33;35.47
50057;BME280;36875;49.468;11.200;2023-02-16T06:08:08;98956.69;;;18.32;35.64
50057;BME280;36875;49.468;11.200;2023-02-16T06:10:34;98953.16;;;18.32;35.40
50057;BME280;36875;49.468;11.200;2023-02-16T06:12:59;98949.34;;;18.27;35.54
50057;BME280;36875;49.468;11.200;2023-02-16T06:15:25;98950.44;;;18.26;35.61
50057;BME280;36875;49.468;11.200;2023-02-16T06:17:52;98949.34;;;18.27;35.71
50057;BME280;36875;49.468;11.200;2023-02-16T06:20:20;98952.34;;;18.26;35.90
50057;BME280;36875;49.468;11.200;2023-02-16T06:22:46;98947.16;;;18.24;35.87
50057;BME280;36875;49.468;11.200;2023-02-16T06:25:11;98951.00;;;18.23;35.93
50057;BME280;36875;49.468;11.200;2023-02-16T06:27:36;98964.03;;;18.21;35.93
50057;BME280;36875;49.468;11.200;2023-02-16T06:30:03;98965.41;;;18.19;35.72
50057;BME280;36875;49.468;11.200;2023-02-16T06:32:29;98958.31;;;18.18;35.97
50057;BME280;36875;49.468;11.200;2023-02-16T06:34:55;98957.25;;;18.19;35.87
50057;BME280;36875;49.468;11.200;2023-02-16T06:37:21;98959.72;;;18.20;36.24
50057;BME280;36875;49.468;11.200;2023-02-16T06:39:46;98952.06;;;18.12;36.42
50057;BME280;36875;49.468;11.200;2023-02-16T06:42:12;98951.25;;;18.11;36.38
50057;BME280;36875;49.468;11.200;2023-02-16T06:44:37;98953.19;;;18.16;36.18
50057;BME280;36875;49.468;11.200;2023-02-16T06:47:08;98958.91;;;18.20;35.84
50057;BME280;36875;49.468;11.200;2023-02-16T06:54:45;98957.78;;;18.26;35.97
50057;BME280;36875;49.468;11.200;2023-02-16T06:57:11;98968.97;;;18.24;35.74
50057;BME280;36875;49.468;11.200;2023-02-16T07:03:48;98840.41;;;17.45;36.50
50057;BME280;36875;49.468;11.200;2023-02-16T07:09:55;98974.69;;;18.23;36.72
50057;BME280;36875;49.468;11.200;2023-02-16T07:12:43;98852.66;;;17.38;36.29
50057;BME280;36875;49.468;11.200;2023-02-16T07:15:09;98972.78;;;18.13;36.27
50057;BME280;36875;49.468;11.200;2023-02-16T07:17:34;98977.69;;;18.16;36.25
50057;BME280;36875;49.468;11.200;2023-02-16T07:19:59;98973.03;;;18.06;35.58
50057;BME280;36875;49.468;11.200;2023-02-16T07:22:26;98978.78;;;18.05;35.22
50057;BME280;36875;49.468;11.200;2023-02-16T07:24:56;98985.03;;;18.05;35.01
50057;BME280;36875;49.468;11.200;2023-02-16T07:27:23;98983.69;;;18.13;35.10
50057;BME280;36875;49.468;11.200;2023-02-16T07:29:49;98984.50;;;18.19;35.10
50057;BME280;36875;49.468;11.200;2023-02-16T07:32:14;98980.94;;;18.34;34.65
50057;BME280;36875;49.468;11.200;2023-02-16T07:34:40;98969.47;;;18.47;34.65
50057;BME280;36875;49.468;11.200;2023-02-16T07:37:05;98968.34;;;18.63;34.02
50057;BME280;36875;49.468;11.200;2023-02-16T07:39:31;98964.22;;;18.76;34.09
50057;BME280;36875;49.468;11.200;2023-02-16T07:41:58;98972.06;;;19.03;33.72
50057;BME280;36875;49.468;11.200;2023-02-16T07:44:24;98965.53;;;19.04;33.62
50057;BME280;36875;49.468;11.200;2023-02-16T07:46:49;98966.59;;;19.14;33.75
50057;BME280;36875;49.468;11.200;2023-02-16T07:49:15;98960.78;;;19.31;33.16
50057;BME280;36875;49.468;11.200;2023-02-16T07:51:40;98958.81;;;19.41;33.36
50057;BME280;36875;49.468;11.200;2023-02-16T07:54:06;98962.47;;;19.66;32.65
50057;BME280;36875;49.468;11.200;2023-02-16T07:56:32;98968.41;;;19.83;32.77
50057;BME280;36875;49.468;11.200;2023-02-16T07:59:00;98961.06;;;20.13;32.26
50057;BME280;36875;49.468;11.200;2023-02-16T08:01:27;98959.38;;;20.47;31.87
50057;BME280;36875;49.468;11.200;2023-02-16T08:03:54;98950.56;;;20.55;31.43
50057;BME280;36875;49.468;11.200;2023-02-16T08:06:20;98950.19;;;20.67;31.39
50057;BME280;36875;49.468;11.200;2023-02-16T08:08:46;98959.31;;;20.81;31.29
50057;BME280;36875;49.468;11.200;2023-02-16T08:11:14;98959.72;;;20.93;30.81
50057;BME280;36875;49.468;11.200;2023-02-16T08:13:41;98957.38;;;21.06;30.53
50057;BME280;36875;49.468;11.200;2023-02-16T08:16:08;98960.41;;;21.04;30.75
50057;BME280;36875;49.468;11.200;2023-02-16T08:18:34;98960.59;;;21.13;30.72
50057;BME280;36875;49.468;11.200;2023-02-16T08:21:06;98943.13;;;21.09;30.76
50057;BME280;36875;49.468;11.200;2023-02-16T08:23:38;98948.09;;;21.26;30.68
50057;BME280;36875;49.468;11.200;2023-02-16T08:26:07;98955.44;;;21.30;30.28
50057;BME280;36875;49.468;11.200;2023-02-16T08:28:34;98945.53;;;21.34;30.22
50057;BME280;36875;49.468;11.200;2023-02-16T08:31:02;98946.31;;;21.35;30.19
50057;BME280;36875;49.468;11.200;2023-02-16T08:33:29;98950.81;;;21.50;30.29
50057;BME280;36875;49.468;11.200;2023-02-16T08:35:55;98958.44;;;21.53;30.19
50057;BME280;36875;49.468;11.200;2023-02-16T08:38:21;98969.31;;;21.58;30.09
50057;BME280;36875;49.468;11.200;2023-02-16T08:40:47;98957.69;;;21.66;30.07
50057;BME280;36875;49.468;11.200;2023-02-16T08:43:12;98963.16;;;21.66;29.83
50057;BME280;36875;49.468;11.200;2023-02-16T08:45:42;98961.78;;;21.69;30.00
50057;BME280;36875;49.468;11.200;2023-02-16T08:48:08;98952.78;;;21.63;29.98
50057;BME280;36875;49.468;11.200;2023-02-16T08:50:35;98971.78;;;21.60;29.91
50057;BME280;36875;49.468;11.200;2023-02-16T08:53:01;98968.88;;;21.70;30.14
50057;BME280;36875;49.468;11.200;2023-02-16T08:55:26;98974.41;;;21.65;30.24
50057;BME280;36875;49.468;11.200;2023-02-16T08:57:52;98971.97;;;21.63;30.30
50057;BME280;36875;49.468;11.200;2023-02-16T09:00:18;98967.44;;;21.72;30.04
50057;BME280;36875;49.468;11.200;2023-02-16T09:02:59;98973.53;;;21.69;30.22
50057;BME280;36875;49.468;11.200;2023-02-16T09:05:25;98972.19;;;21.67;30.17
50057;BME280;36875;49.468;11.200;2023-02-16T09:07:53;98970.88;;;21.64;30.00
50057;BME280;36875;49.468;11.200;2023-02-16T09:10:19;98977.25;;;21.60;30.27
50057;BME280;36875;49.468;11.200;2023-02-16T09:12:47;98981.44;;;21.52;30.23
50057;BME280;36875;49.468;11.200;2023-02-16T09:15:14;98970.50;;;21.52;30.40
50057;BME280;36875;49.468;11.200;2023-02-16T09:18:13;98989.53;;;21.62;30.37
50057;BME280;36875;49.468;11.200;2023-02-16T09:20:40;98986.28;;;21.60;30.44
50057;BME280;36875;49.468;11.200;2023-02-16T09:23:09;98985.13;;;21.42;30.94
50057;BME280;36875;49.468;11.200;2023-02-16T09:25:35;98998.50;;;21.25;31.32
50057;BME280;36875;49.468;11.200;2023-02-16T09:28:01;98995.38;;;21.31;31.31
50057;BME280;36875;49.468;11.200;2023-02-16T09:30:27;98981.75;;;21.26;31.50
50057;BME280;36875;49.468;11.200;2023-02-16T09:32:53;99001.31;;;21.38;31.27
50057;BME280;36875;49.468;11.200;2023-02-16T09:35:19;98999.69;;;21.37;31.19
50057;BME280;36875;49.468;11.200;2023-02-16T09:37:45;99010.63;;;21.37;31.02
50057;BME280;36875;49.468;11.200;2023-02-16T09:40:13;99008.44;;;21.40;31.22
50057;BME280;36875;49.468;11.200;2023-02-16T09:42:49;99012.69;;;21.51;31.22
50057;BME280;36875;49.468;11.200;2023-02-16T09:45:19;99001.34;;;21.58;30.79
50057;BME280;36875;49.468;11.200;2023-02-16T09:47:49;99007.56;;;21.63;30.95
50057;BME280;36875;49.468;11.200;2023-02-16T09:50:17;99006.72;;;21.68;30.81
50057;BME280;36875;49.468;11.200;2023-02-16T09:52:48;99001.22;;;21.68;31.05
50057;BME280;36875;49.468;11.200;2023-02-16T09:55:17;98992.66;;;21.74;30.85
50057;BME280;36875;49.468;11.200;2023-02-16T09:57:57;99004.13;;;21.77;30.90
50057;BME280;36875;49.468;11.200;2023-02-16T10:00:33;98996.03;;;21.85;30.71
50057;BME280;36875;49.468;11.200;2023-02-16T10:03:19;98993.00;;;22.06;30.53
50057;BME280;36875;49.468;11.200;2023-02-16T10:05:55;98996.44;;;22.30;30.12
50057;BME280;36875;49.468;11.200;2023-02-16T10:08:28;98998.84;;;22.51;29.94
50057;BME280;36875;49.468;11.200;2023-02-16T10:11:01;98974.34;;;22.55;29.62
50057;BME280;36875;49.468;11.200;2023-02-16T10:13:35;98988.31;;;22.72;29.83
50057;BME280;36875;49.468;11.200;2023-02-16T10:16:04;98983.31;;;22.88;29.52
50057;BME280;36875;49.468;11.200;2023-02-16T10:18:36;98981.22;;;22.85;29.84
50057;BME280;36875;49.468;11.200;2023-02-16T10:21:08;98989.53;;;22.94;29.57
50057;BME280;36875;49.468;11.200;2023-02-16T10:23:44;98977.34;;;23.00;29.51
50057;BME280;36875;49.468;11.200;2023-02-16T10:26:17;98974.00;;;23.17;29.26
50057;BME280;36875;49.468;11.200;2023-02-16T10:28:46;98981.84;;;23.09;29.62
50057;BME280;36875;49.468;11.200;2023-02-16T10:31:18;98962.59;;;22.82;29.95
50057;BME280;36875;49.468;11.200;2023-02-16T10:33:54;98973.38;;;22.92;29.83
50057;BME280;36875;49.468;11.200;2023-02-16T10:36:33;98968.78;;;22.87;30.04
50057;BME280;36875;49.468;11.200;2023-02-16T10:39:07;98964.53;;;22.95;30.11
50057;BME280;36875;49.468;11.200;2023-02-16T10:41:36;98965.66;;;22.94;30.17
50057;BME280;36875;49.468;11.200;2023-02-16T10:44:10;98939.53;;;22.83;30.12
50057;BME280;36875;49.468;11.200;2023-02-16T10:46:41;98955.19;;;23.10;30.15
50057;BME280;36875;49.468;11.200;2023-02-16T10:49:10;98959.56;;;23.11;30.11
50057;BME280;36875;49.468;11.200;2023-02-16T10:51:36;98953.69;;;23.18;30.12
50057;BME280;36875;49.468;11.200;2023-02-16T10:54:04;98954.47;;;23.18;29.96
50057;BME280;36875;49.468;11.200;2023-02-16T10:56:40;98958.44;;;23.12;30.23
50057;BME280;36875;49.468;11.200;2023-02-16T10:59:13;98942.50;;;23.14;29.86
50057;BME280;36875;49.468;11.200;2023-02-16T11:01:43;98947.97;;;23.14;29.93
50057;BME280;36875;49.468;11.200;2023-02-16T11:04:32;98940.66;;;23.09;30.15
50057;BME280;36875;49.468;11.200;2023-02-16T11:07:00;98914.13;;;23.05;30.11
50057;BME280;36875;49.468;11.200;2023-02-16T11:09:27;98935.47;;;23.08;30.50
50057;BME280;36875;49.468;11.200;2023-02-16T11:11:55;98924.28;;;23.04;30.11
50057;BME280;36875;49.468;11.200;2023-02-16T11:14:22;98924.69;;;22.98;30.20
50057;BME280;36875;49.468;11.200;2023-02-16T11:17:02;98927.72;;;22.96;30.23
50057;BME280;36875;49.468;11.200;2023-02-16T11:19:28;98921.09;;;22.97;30.25
50057;BME280;36875;49.468;11.200;2023-02-16T11:21:56;98918.25;;;23.02;29.89
50057;BME280;36875;49.468;11.200;2023-02-16T11:24:25;98910.97;;;22.98;30.02
50057;BME280;36875;49.468;11.200;2023-02-16T11:27:00;98905.78;;;22.96;30.14
50057;BME280;36875;49.468;11.200;2023-02-16T11:29:26;98898.84;;;22.99;30.16
50057;BME280;36875;49.468;11.200;2023-02-16T11:31:52;98896.41;;;22.97;30.10
50057;BME280;36875;49.468;11.200;2023-02-16T11:34:27;98893.16;;;22.95;30.02
50057;BME280;36875;49.468;11.200;2023-02-16T11:37:00;98895.00;;;23.00;30.25
50057;BME280;36875;49.468;11.200;2023-02-16T11:39:30;98896.44;;;22.83;30.38
50057;BME280;36875;49.468;11.200;2023-02-16T11:42:00;98887.47;;;22.91;30.27
50057;BME280;36875;49.468;11.200;2023-02-16T11:44:30;98891.94;;;22.87;30.34
50057;BME280;36875;49.468;11.200;2023-02-16T11:46:58;98882.22;;;22.81;30.62
50057;BME280;36875;49.468;11.200;2023-02-16T11:49:31;98891.44;;;22.85;30.69
50057;BME280;36875;49.468;11.200;2023-02-16T11:51:57;98884.44;;;22.79;30.65
50057;BME280;36875;49.468;11.200;2023-02-16T11:54:23;98887.91;;;22.85;30.72
50057;BME280;36875;49.468;11.200;2023-02-16T11:57:02;98881.06;;;22.82;30.67
50057;BME280;36875;49.468;11.200;2023-02-16T11:59:33;98884.66;;;22.83;31.01
50057;BME280;36875;49.468;11.200;2023-02-16T12:02:26;98869.00;;;22.83;30.93
50057;BME280;36875;49.468;11.200;2023-02-16T12:05:05;98866.84;;;22.94;30.87
50057;BME280;36875;49.468;11.200;2023-02-16T12:07:39;98870.38;;;22.95;30.91
50057;BME280;36875;49.468;11.200;2023-02-16T12:10:08;98856.06;;;22.98;31.00
50057;BME280;36875;49.468;11.200;2023-02-16T12:12:48;98863.66;;;23.01;30.91
50057;BME280;36875;49.468;11.200;2023-02-16T12:15:20;98861.41;;;23.03;31.21
50057;BME280;36875;49.468;11.200;2023-02-16T12:17:58;98865.56;;;23.28;31.07
50057;BME280;36875;49.468;11.200;2023-02-16T12:20:37;98845.66;;;23.45;30.79
50057;BME280;36875;49.468;11.200;2023-02-16T12:23:17;98855.72;;;23.72;30.44
50057;BME280;36875;49.468;11.200;2023-02-16T12:25:54;98854.53;;;23.87;30.22
50057;BME280;36875;49.468;11.200;2023-02-16T12:28:28;98849.69;;;23.84;30.40
50057;BME280;36875;49.468;11.200;2023-02-16T12:31:02;98844.50;;;23.82;30.46
50057;BME280;36875;49.468;11.200;2023-02-16T12:33:38;98838.41;;;23.94;30.08
50057;BME280;36875;49.468;11.200;2023-02-16T12:36:42;98832.44;;;23.92;30.40
50057;BME280;36875;49.468;11.200;2023-02-16T12:39:16;98835.84;;;23.98;30.40
50057;BME280;36875;49.468;11.200;2023-02-16T12:41:51;98835.78;;;23.89;30.52
50057;BME280;36875;49.468;11.200;2023-02-16T12:44:26;98834.91;;;24.02;30.40
50057;BME280;36875;49.468;11.200;2023-02-16T12:46:59;98833.78;;;24.03;30.63
50057;BME280;36875;49.468;11.200;2023-02-16T12:49:29;98816.56;;;23.89;30.50
50057;BME280;36875;49.468;11.200;2023-02-16T12:52:02;98820.34;;;24.02;30.22
50057;BME280;36875;49.468;11.200;2023-02-16T12:54:31;98821.97;;;24.03;29.98
50057;BME280;36875;49.468;11.200;2023-02-16T12:57:00;98814.47;;;23.95;30.49
50057;BME280;36875;49.468;11.200;2023-02-16T12:59:34;98809.75;;;23.86;30.76
50057;BME280;36875;49.468;11.200;2023-02-16T13:02:03;98808.66;;;23.88;30.74
50057;BME280;36875;49.468;11.200;2023-02-16T13:04:37;98793.88;;;23.83;30.61
50057;BME280;36875;49.468;11.200;2023-02-16T13:07:10;98801.44;;;23.78;30.51
50057;BME280;36875;49.468;11.200;2023-02-16T13:09:49;98789.31;;;23.79;30.69
50057;BME280;36875;49.468;11.200;2023-02-16T13:12:23;98788.16;;;23.71;30.87
50057;BME280;36875;49.468;11.200;2023-02-16T13:14:59;98793.13;;;23.69;30.74
50057;BME280;36875;49.468;11.200;2023-02-16T13:17:32;98788.78;;;23.68;30.96
50057;BME280;36875;49.468;11.200;2023-02-16T13:41:07;98783.97;;;23.06;30.92